createdAt,value
2023-05-14T00:00:27.746Z,983.24
2023-05-14T00:01:27.764Z,983.23
2023-05-14T00:02:27.811Z,983.21
2023-05-14T00:03:27.925Z,983.20
2023-05-14T00:04:27.823Z,983.19
2023-05-14T00:05:27.723Z,983.18
2023-05-14T00:06:27.707Z,983.17
2023-05-14T00:07:27.700Z,983.16
2023-05-14T00:08:27.667Z,983.15
2023-05-14T00:09:27.684Z,983.14
2023-05-14T00:10:27.645Z,983.14
2023-05-14T00:11:27.665Z,983.14
2023-05-14T00:12:27.632Z,983.14
2023-05-14T00:13:27.623Z,983.12
2023-05-14T00:14:27.597Z,983.11
2023-05-14T00:15:27.626Z,983.10
2023-05-14T00:16:27.621Z,983.08
2023-05-14T00:17:27.662Z,983.07
2023-05-14T00:18:27.630Z,983.07
2023-05-14T00:19:27.567Z,983.05
2023-05-14T00:20:27.537Z,983.04
2023-05-14T00:21:27.554Z,983.03
2023-05-14T00:22:27.512Z,983.03
2023-05-14T00:23:27.543Z,983.02
2023-05-14T00:24:27.498Z,983.01
2023-05-14T00:25:27.521Z,983.00
2023-05-14T00:26:27.472Z,983.00
2023-05-14T00:27:27.556Z,982.99
2023-05-14T00:28:27.460Z,982.99
2023-05-14T00:29:27.484Z,982.99
2023-05-14T00:30:27.425Z,982.98
2023-05-14T00:31:27.475Z,982.98
2023-05-14T00:32:27.455Z,982.97
2023-05-14T00:33:27.427Z,982.95
2023-05-14T00:34:27.398Z,982.94
2023-05-14T00:35:27.413Z,982.94
2023-05-14T00:36:27.363Z,982.94
2023-05-14T00:37:27.370Z,982.94
2023-05-14T00:38:27.373Z,982.94
2023-05-14T00:39:27.348Z,982.94
2023-05-14T00:40:27.348Z,982.95
2023-05-14T00:41:27.345Z,982.95
2023-05-14T00:42:27.305Z,982.95
2023-05-14T00:43:27.320Z,982.96
2023-05-14T00:44:27.284Z,982.97
2023-05-14T00:45:27.312Z,982.98
2023-05-14T00:46:27.316Z,982.98
2023-05-14T00:47:27.321Z,982.99
2023-05-14T00:48:27.242Z,982.99
2023-05-14T00:49:27.264Z,982.99
2023-05-14T00:50:27.289Z,982.99
2023-05-14T00:51:27.251Z,983.00
2023-05-14T00:52:27.197Z,983.00
2023-05-14T00:53:27.220Z,982.99
2023-05-14T00:54:27.180Z,982.98
2023-05-14T00:55:27.207Z,982.98
2023-05-14T00:56:27.158Z,982.98
2023-05-14T00:57:27.186Z,982.98
2023-05-14T00:58:27.166Z,982.98
2023-05-14T00:59:27.152Z,982.98
2023-05-14T01:00:27.113Z,982.98
2023-05-14T01:01:27.207Z,982.99
2023-05-14T01:02:27.146Z,982.99
2023-05-14T01:03:27.208Z,982.99
2023-05-14T01:04:27.070Z,982.99
2023-05-14T01:05:27.208Z,982.99
2023-05-14T01:06:27.070Z,982.99
2023-05-14T01:07:27.070Z,982.98
2023-05-14T01:08:27.023Z,982.99
2023-05-14T01:09:27.086Z,983.00
2023-05-14T01:10:27.085Z,983.00
2023-05-14T01:11:27.010Z,982.99
2023-05-14T01:12:26.995Z,982.99
2023-05-14T01:13:27.016Z,983.00
2023-05-14T01:14:26.961Z,982.98
2023-05-14T01:15:26.988Z,982.97
2023-05-14T01:16:26.967Z,982.98
2023-05-14T01:17:26.970Z,982.99
2023-05-14T01:18:26.968Z,983.00
2023-05-14T01:19:26.926Z,982.99
2023-05-14T01:20:26.930Z,982.98
2023-05-14T01:21:26.928Z,982.97
2023-05-14T01:22:26.881Z,982.97
2023-05-14T01:23:26.912Z,982.96
2023-05-14T01:24:26.882Z,982.95
2023-05-14T01:25:26.886Z,982.94
2023-05-14T01:26:26.837Z,982.92
2023-05-14T01:27:26.836Z,982.92
2023-05-14T01:28:26.815Z,982.91
2023-05-14T01:29:26.843Z,982.89
2023-05-14T01:30:26.888Z,982.89
2023-05-14T01:31:26.849Z,982.89
2023-05-14T01:32:26.868Z,982.88
2023-05-14T01:33:26.806Z,982.88
2023-05-14T01:34:26.764Z,982.88
2023-05-14T01:35:26.756Z,982.88
2023-05-14T01:36:26.730Z,982.87
2023-05-14T01:37:26.733Z,982.88
2023-05-14T01:38:26.713Z,982.89
2023-05-14T01:39:26.735Z,982.89
2023-05-14T01:40:26.727Z,982.89
2023-05-14T01:41:26.706Z,982.88
2023-05-14T01:42:26.664Z,982.88
2023-05-14T01:43:26.702Z,982.89
2023-05-14T01:44:26.641Z,982.89
2023-05-14T01:45:26.666Z,982.89
2023-05-14T01:46:26.634Z,982.90
2023-05-14T01:47:26.647Z,982.90
2023-05-14T01:48:26.611Z,982.91
2023-05-14T01:49:26.607Z,982.92
2023-05-14T01:50:26.581Z,982.92
2023-05-14T01:51:26.608Z,982.92
2023-05-14T01:52:26.557Z,982.92
2023-05-14T01:53:26.558Z,982.92
2023-05-14T01:54:26.534Z,982.92
2023-05-14T01:55:26.560Z,982.92
2023-05-14T01:56:26.522Z,982.92
2023-05-14T01:57:26.545Z,982.92
2023-05-14T01:58:26.496Z,982.91
2023-05-14T01:59:26.499Z,982.91
2023-05-14T02:00:26.663Z,982.90
2023-05-14T02:01:26.567Z,982.89
2023-05-14T02:02:26.528Z,982.89
2023-05-14T02:03:26.479Z,982.89
2023-05-14T02:04:26.558Z,982.88
2023-05-14T02:05:26.449Z,982.87
2023-05-14T02:06:26.401Z,982.86
2023-05-14T02:07:26.441Z,982.85
2023-05-14T02:08:26.387Z,982.85
2023-05-14T02:09:26.393Z,982.83
2023-05-14T02:10:26.451Z,982.81
2023-05-14T02:11:26.373Z,982.81
2023-05-14T02:12:26.355Z,982.80
2023-05-14T02:13:26.393Z,982.81
2023-05-14T02:14:26.323Z,982.82
2023-05-14T02:15:26.350Z,982.81
2023-05-14T02:16:26.370Z,982.81
2023-05-14T02:17:26.426Z,982.81
2023-05-14T02:18:26.315Z,982.81
2023-05-14T02:19:26.297Z,982.81
2023-05-14T02:20:26.344Z,982.82
2023-05-14T02:21:26.268Z,982.81
2023-05-14T02:22:26.252Z,982.81
2023-05-14T02:23:37.875Z,982.81
2023-05-14T02:24:26.219Z,982.81
2023-05-14T02:25:26.224Z,982.80
2023-05-14T02:26:26.202Z,982.80
2023-05-14T02:27:26.202Z,982.79
2023-05-14T02:28:26.177Z,982.79
2023-05-14T02:29:26.206Z,982.78
2023-05-14T02:30:26.177Z,982.78
2023-05-14T02:31:26.191Z,982.77
2023-05-14T02:32:26.211Z,982.77
2023-05-14T02:33:26.199Z,982.77
2023-05-14T02:34:26.145Z,982.76
2023-05-14T02:35:26.138Z,982.76
2023-05-14T02:36:26.099Z,982.76
2023-05-14T02:37:26.116Z,982.76
2023-05-14T02:38:26.074Z,982.76
2023-05-14T02:39:26.095Z,982.75
2023-05-14T02:40:26.287Z,982.74
2023-05-14T02:41:26.072Z,982.73
2023-05-14T02:42:26.037Z,982.73
2023-05-14T02:43:26.032Z,982.73
2023-05-14T02:44:26.007Z,982.72
2023-05-14T02:45:26.022Z,982.72
2023-05-14T02:46:26.000Z,982.72
2023-05-14T02:47:26.031Z,982.72
2023-05-14T02:48:25.967Z,982.71
2023-05-14T02:49:25.971Z,982.71
2023-05-14T02:50:26.225Z,982.69
2023-05-14T02:51:25.954Z,982.67
2023-05-14T02:52:25.932Z,982.66
2023-05-14T02:53:25.936Z,982.64
2023-05-14T02:54:25.909Z,982.63
2023-05-14T02:55:25.942Z,982.62
2023-05-14T02:56:25.895Z,982.62
2023-05-14T02:57:25.894Z,982.61
2023-05-14T02:58:28.218Z,982.61
2023-05-14T02:59:25.883Z,982.61
2023-05-14T03:00:26.098Z,982.62
2023-05-14T03:01:25.875Z,982.61
2023-05-14T03:02:25.957Z,982.61
2023-05-14T03:03:25.858Z,982.61
2023-05-14T03:04:25.796Z,982.61
2023-05-14T03:05:25.814Z,982.61
2023-05-14T03:06:25.797Z,982.61
2023-05-14T03:07:25.769Z,982.60
2023-05-14T03:08:25.777Z,982.61
2023-05-14T03:09:25.777Z,982.61
2023-05-14T03:10:25.961Z,982.60
2023-05-14T03:11:25.699Z,982.60
2023-05-14T03:12:25.684Z,982.60
2023-05-14T03:13:25.720Z,982.59
2023-05-14T03:14:25.707Z,982.58
2023-05-14T03:15:25.717Z,982.57
2023-05-14T03:16:25.660Z,982.57
2023-05-14T03:17:25.741Z,982.57
2023-05-14T03:18:25.701Z,982.58
2023-05-14T03:19:25.672Z,982.58
2023-05-14T03:20:25.824Z,982.59
2023-05-14T03:21:25.613Z,982.59
2023-05-14T03:22:25.577Z,982.59
2023-05-14T03:23:25.573Z,982.59
2023-05-14T03:24:25.533Z,982.59
2023-05-14T03:25:25.557Z,982.59
2023-05-14T03:26:25.514Z,982.58
2023-05-14T03:27:25.533Z,982.58
2023-05-14T03:28:25.509Z,982.59
2023-05-14T03:29:25.498Z,982.59
2023-05-14T03:30:25.792Z,982.59
2023-05-14T03:31:25.514Z,982.60
2023-05-14T03:32:25.476Z,982.60
2023-05-14T03:33:25.473Z,982.59
2023-05-14T03:34:25.443Z,982.58
2023-05-14T03:35:25.457Z,982.58
2023-05-14T03:36:25.407Z,982.58
2023-05-14T03:37:25.423Z,982.59
2023-05-14T03:38:25.389Z,982.60
2023-05-14T03:39:25.411Z,982.60
2023-05-14T03:40:25.613Z,982.60
2023-05-14T03:41:25.365Z,982.62
2023-05-14T03:42:25.343Z,982.62
2023-05-14T03:43:25.369Z,982.64
2023-05-14T03:44:25.332Z,982.64
2023-05-14T03:45:25.338Z,982.65
2023-05-14T03:46:25.294Z,982.66
2023-05-14T03:47:25.331Z,982.66
2023-05-14T03:48:25.405Z,982.66
2023-05-14T03:49:25.291Z,982.66
2023-05-14T03:50:25.659Z,982.65
2023-05-14T03:51:25.264Z,982.64
2023-05-14T03:52:25.232Z,982.62
2023-05-14T03:53:25.249Z,982.61
2023-05-14T03:54:25.220Z,982.61
2023-05-14T03:55:25.240Z,982.61
2023-05-14T03:56:25.190Z,982.61
2023-05-14T03:57:25.216Z,982.61
2023-05-14T03:58:25.170Z,982.60
2023-05-14T03:59:25.169Z,982.61
2023-05-14T04:00:25.544Z,982.61
2023-05-14T04:01:25.174Z,982.62
2023-05-14T04:02:25.209Z,982.62
2023-05-14T04:03:25.234Z,982.63
2023-05-14T04:04:25.179Z,982.64
2023-05-14T04:05:25.112Z,982.64
2023-05-14T04:06:25.098Z,982.63
2023-05-14T04:07:25.098Z,982.64
2023-05-14T04:08:25.066Z,982.64
2023-05-14T04:09:25.060Z,982.65
2023-05-14T04:10:25.223Z,982.65
2023-05-14T04:11:25.037Z,982.65
2023-05-14T04:12:25.033Z,982.66
2023-05-14T04:13:25.024Z,982.66
2023-05-14T04:14:25.034Z,982.67
2023-05-14T04:15:25.004Z,982.67
2023-05-14T04:16:25.021Z,982.68
2023-05-14T04:17:25.010Z,982.67
2023-05-14T04:18:25.060Z,982.67
2023-05-14T04:19:24.952Z,982.66
2023-05-14T04:20:25.177Z,982.66
2023-05-14T04:21:24.924Z,982.64
2023-05-14T04:22:24.988Z,982.64
2023-05-14T04:23:24.905Z,982.63
2023-05-14T04:24:24.911Z,982.63
2023-05-14T04:25:24.879Z,982.63
2023-05-14T04:26:24.903Z,982.63
2023-05-14T04:27:24.872Z,982.64
2023-05-14T04:28:24.894Z,982.66
2023-05-14T04:29:24.845Z,982.67
2023-05-14T04:30:25.080Z,982.68
2023-05-14T04:31:24.850Z,982.69
2023-05-14T04:32:24.881Z,982.69
2023-05-14T04:33:24.810Z,982.70
2023-05-14T04:34:24.807Z,982.69
2023-05-14T04:35:25.104Z,982.69
2023-05-14T04:36:24.786Z,982.68
2023-05-14T04:37:24.752Z,982.66
2023-05-14T04:38:24.777Z,982.65
2023-05-14T04:39:24.742Z,982.64
2023-05-14T04:40:24.983Z,982.64
2023-05-14T04:41:24.714Z,982.64
2023-05-14T04:42:24.731Z,982.65
2023-05-14T04:43:24.687Z,982.65
2023-05-14T04:44:24.721Z,982.65
2023-05-14T04:45:24.671Z,982.65
2023-05-14T04:46:24.742Z,982.65
2023-05-14T04:47:24.669Z,982.65
2023-05-14T04:48:24.665Z,982.66
2023-05-14T04:49:24.638Z,982.66
2023-05-14T04:50:24.913Z,982.66
2023-05-14T04:51:24.595Z,982.66
2023-05-14T04:52:24.630Z,982.65
2023-05-14T04:53:24.592Z,982.63
2023-05-14T04:54:24.616Z,982.64
2023-05-14T04:55:24.605Z,982.63
2023-05-14T04:56:24.563Z,982.62
2023-05-14T04:57:24.539Z,982.61
2023-05-14T04:58:24.569Z,982.60
2023-05-14T04:59:24.526Z,982.60
2023-05-14T05:00:24.924Z,982.60
2023-05-14T05:01:24.589Z,982.59
2023-05-14T05:02:24.566Z,982.58
2023-05-14T05:03:24.607Z,982.58
2023-05-14T05:04:24.485Z,982.57
2023-05-14T05:05:24.468Z,982.56
2023-05-14T05:06:24.459Z,982.56
2023-05-14T05:07:24.434Z,982.55
2023-05-14T05:08:24.458Z,982.54
2023-05-14T05:09:24.421Z,982.54
2023-05-14T05:10:24.773Z,982.53
2023-05-14T05:11:24.391Z,982.53
2023-05-14T05:12:24.446Z,982.52
2023-05-14T05:13:24.370Z,982.51
2023-05-14T05:14:24.381Z,982.51
2023-05-14T05:15:26.520Z,982.50
2023-05-14T05:16:24.395Z,982.50
2023-05-14T05:17:24.389Z,982.49
2023-05-14T05:18:24.368Z,982.48
2023-05-14T05:19:35.741Z,982.47
2023-05-14T05:20:24.512Z,982.46
2023-05-14T05:21:24.298Z,982.45
2023-05-14T05:22:24.312Z,982.44
2023-05-14T05:23:24.273Z,982.44
2023-05-14T05:24:24.278Z,982.43
2023-05-14T05:25:24.245Z,982.42
2023-05-14T05:26:24.264Z,982.42
2023-05-14T05:27:24.238Z,982.42
2023-05-14T05:28:24.244Z,982.41
2023-05-14T05:29:24.200Z,982.41
2023-05-14T05:30:24.495Z,982.40
2023-05-14T05:31:24.205Z,982.41
2023-05-14T05:32:24.230Z,982.42
2023-05-14T05:33:24.179Z,982.42
2023-05-14T05:34:24.168Z,982.41
2023-05-14T05:35:24.146Z,982.41
2023-05-14T05:36:24.180Z,982.40
2023-05-14T05:37:24.137Z,982.40
2023-05-14T05:38:24.158Z,982.39
2023-05-14T05:39:24.103Z,982.38
2023-05-14T05:40:24.371Z,982.36
2023-05-14T05:41:24.078Z,982.35
2023-05-14T05:42:24.089Z,982.34
2023-05-14T05:43:24.049Z,982.33
2023-05-14T05:44:24.068Z,982.32
2023-05-14T05:45:24.047Z,982.33
2023-05-14T05:46:24.065Z,982.32
2023-05-14T05:47:24.063Z,982.31
2023-05-14T05:48:24.011Z,982.30
2023-05-14T05:49:23.990Z,982.30
2023-05-14T05:50:24.161Z,982.30
2023-05-14T05:51:23.964Z,982.30
2023-05-14T05:52:24.000Z,982.29
2023-05-14T05:53:23.989Z,982.29
2023-05-14T05:54:24.068Z,982.28
2023-05-14T05:55:23.921Z,982.27
2023-05-14T05:56:23.937Z,982.26
2023-05-14T05:57:26.191Z,982.25
2023-05-14T05:58:23.912Z,982.25
2023-05-14T05:59:23.904Z,982.25
2023-05-14T06:00:24.334Z,982.26
2023-05-14T06:01:23.888Z,982.27
2023-05-14T06:02:23.890Z,982.30
2023-05-14T06:03:23.872Z,982.31
2023-05-14T06:04:23.857Z,982.33
2023-05-14T06:05:23.907Z,982.33
2023-05-14T06:06:23.877Z,982.34
2023-05-14T06:07:23.797Z,982.35
2023-05-14T06:08:23.813Z,982.35
2023-05-14T06:09:23.772Z,982.35
2023-05-14T06:10:24.063Z,982.36
2023-05-14T06:11:23.768Z,982.36
2023-05-14T06:12:23.761Z,982.38
2023-05-14T06:13:23.732Z,982.39
2023-05-14T06:14:23.747Z,982.37
2023-05-14T06:15:23.730Z,982.40
2023-05-14T06:16:23.748Z,982.39
2023-05-14T06:17:23.825Z,982.40
2023-05-14T06:18:23.695Z,982.40
2023-05-14T06:19:23.680Z,982.41
2023-05-14T06:20:23.864Z,982.40
2023-05-14T06:21:23.682Z,982.42
2023-05-14T06:22:23.650Z,982.42
2023-05-14T06:23:23.676Z,982.42
2023-05-14T06:24:23.635Z,982.43
2023-05-14T06:25:23.618Z,982.45
2023-05-14T06:26:23.618Z,982.44
2023-05-14T06:27:23.613Z,982.44
2023-05-14T06:28:23.613Z,982.43
2023-05-14T06:29:23.651Z,982.43
2023-05-14T06:30:23.907Z,982.42
2023-05-14T06:31:23.560Z,982.43
2023-05-14T06:32:23.702Z,982.42
2023-05-14T06:33:23.566Z,982.43
2023-05-14T06:34:23.553Z,982.42
2023-05-14T06:35:23.501Z,982.42
2023-05-14T06:36:23.558Z,982.42
2023-05-14T06:37:23.480Z,982.42
2023-05-14T06:38:23.496Z,982.44
2023-05-14T06:39:23.454Z,982.44
2023-05-14T06:40:23.682Z,982.46
2023-05-14T06:41:23.442Z,982.44
2023-05-14T06:42:23.460Z,982.45
2023-05-14T06:43:23.417Z,982.46
2023-05-14T06:44:23.413Z,982.45
2023-05-14T06:45:23.386Z,982.44
2023-05-14T06:46:23.463Z,982.40
2023-05-14T06:47:23.435Z,982.40
2023-05-14T06:48:23.469Z,982.39
2023-05-14T06:49:23.349Z,982.37
2023-05-14T06:50:23.624Z,982.37
2023-05-14T06:51:23.348Z,982.36
2023-05-14T06:52:23.383Z,982.37
2023-05-14T06:53:23.307Z,982.37
2023-05-14T06:54:23.322Z,982.36
2023-05-14T06:55:23.343Z,982.36
2023-05-14T06:56:23.298Z,982.39
2023-05-14T06:57:23.276Z,982.37
2023-05-14T06:58:23.284Z,982.38
2023-05-14T06:59:23.248Z,982.38
2023-05-14T07:00:23.482Z,982.39
2023-05-14T07:01:23.305Z,982.38
2023-05-14T07:02:23.253Z,982.37
2023-05-14T07:03:23.209Z,982.38
2023-05-14T07:04:23.322Z,982.37
2023-05-14T07:05:23.176Z,982.35
2023-05-14T07:06:23.204Z,982.37
2023-05-14T07:07:23.149Z,982.37
2023-05-14T07:08:23.171Z,982.37
2023-05-14T07:09:23.145Z,982.37
2023-05-14T07:10:23.327Z,982.37
2023-05-14T07:11:23.146Z,982.36
2023-05-14T07:12:23.139Z,982.38
2023-05-14T07:13:23.090Z,982.39
2023-05-14T07:14:23.112Z,982.36
2023-05-14T07:15:23.072Z,982.34
2023-05-14T07:16:23.083Z,982.33
2023-05-14T07:17:23.121Z,982.31
2023-05-14T07:18:23.069Z,982.29
2023-05-14T07:19:23.018Z,982.26
2023-05-14T07:20:23.296Z,982.25
2023-05-14T07:21:23.003Z,982.23
2023-05-14T07:22:23.021Z,982.23
2023-05-14T07:23:23.175Z,982.24
2023-05-14T07:24:23.026Z,982.21
2023-05-14T07:25:22.982Z,982.21
2023-05-14T07:26:22.979Z,982.22
2023-05-14T07:27:22.944Z,982.21
2023-05-14T07:28:22.957Z,982.19
2023-05-14T07:29:22.938Z,982.19
2023-05-14T07:30:23.146Z,982.16
2023-05-14T07:31:23.013Z,982.20
2023-05-14T07:32:22.904Z,982.17
2023-05-14T07:33:22.872Z,982.18
2023-05-14T07:34:22.952Z,982.19
2023-05-14T07:35:22.859Z,982.20
2023-05-14T07:36:22.877Z,982.20
2023-05-14T07:37:24.191Z,982.20
2023-05-14T07:38:22.851Z,982.21
2023-05-14T07:39:22.817Z,982.20
2023-05-14T07:40:23.086Z,982.21
2023-05-14T07:41:22.814Z,982.19
2023-05-14T07:42:35.291Z,982.20
2023-05-14T07:43:22.768Z,982.20
2023-05-14T07:44:22.773Z,982.17
2023-05-14T07:45:22.908Z,982.20
2023-05-14T07:46:22.753Z,982.19
2023-05-14T07:47:22.810Z,982.18
2023-05-14T07:48:22.805Z,982.18
2023-05-14T07:49:22.699Z,982.18
2023-05-14T07:50:22.879Z,982.16
2023-05-14T07:51:22.705Z,982.16
2023-05-14T07:52:22.686Z,982.16
2023-05-14T07:53:22.657Z,982.17
2023-05-14T07:54:22.705Z,982.15
2023-05-14T07:55:22.640Z,982.16
2023-05-14T07:56:22.706Z,982.16
2023-05-14T07:57:22.637Z,982.16
2023-05-14T07:58:22.631Z,982.17
2023-05-14T07:59:22.591Z,982.16
2023-05-14T08:00:22.855Z,982.15
2023-05-14T08:01:22.583Z,982.14
2023-05-14T08:02:22.687Z,982.14
2023-05-14T08:03:22.720Z,982.13
2023-05-14T08:04:22.598Z,982.11
2023-05-14T08:05:22.535Z,982.12
2023-05-14T08:06:22.543Z,982.10
2023-05-14T08:07:22.518Z,982.11
2023-05-14T08:08:22.523Z,982.10
2023-05-14T08:09:22.484Z,982.11
2023-05-14T08:10:22.937Z,982.13
2023-05-14T08:11:22.544Z,982.12
2023-05-14T08:12:22.484Z,982.12
2023-05-14T08:13:22.445Z,982.12
2023-05-14T08:14:22.458Z,982.12
2023-05-14T08:15:22.431Z,982.11
2023-05-14T08:16:22.482Z,982.14
2023-05-14T08:17:22.461Z,982.12
2023-05-14T08:18:22.428Z,982.14
2023-05-14T08:19:22.380Z,982.13
2023-05-14T08:20:22.637Z,982.13
2023-05-14T08:21:22.401Z,982.14
2023-05-14T08:22:22.366Z,982.12
2023-05-14T08:23:22.432Z,982.12
2023-05-14T08:24:22.331Z,982.11
2023-05-14T08:25:22.383Z,982.11
2023-05-14T08:26:22.300Z,982.10
2023-05-14T08:27:22.367Z,982.12
2023-05-14T08:28:22.282Z,982.16
2023-05-14T08:29:22.309Z,982.15
2023-05-14T08:30:22.495Z,982.14
2023-05-14T08:31:22.384Z,982.11
2023-05-14T08:32:24.179Z,982.09
2023-05-14T08:33:22.257Z,982.12
2023-05-14T08:34:22.221Z,982.10
2023-05-14T08:35:22.254Z,982.11
2023-05-14T08:36:22.206Z,982.11
2023-05-14T08:37:22.207Z,982.10
2023-05-14T08:38:22.189Z,982.09
2023-05-14T08:39:22.182Z,982.11
2023-05-14T08:40:22.379Z,982.08
2023-05-14T08:41:22.180Z,982.06
2023-05-14T08:42:22.138Z,982.05
2023-05-14T08:43:22.145Z,982.05
2023-05-14T08:44:22.121Z,982.04
2023-05-14T08:45:22.134Z,982.05
2023-05-14T08:46:22.103Z,982.06
2023-05-14T08:47:22.137Z,982.05
2023-05-14T08:48:22.146Z,982.03
2023-05-14T08:49:22.094Z,982.01
2023-05-14T08:50:23.254Z,982.01
2023-05-14T08:51:22.109Z,982.02
2023-05-14T08:52:22.028Z,982.00
2023-05-14T08:53:22.057Z,982.00
2023-05-14T08:54:22.023Z,982.00
2023-05-14T08:55:22.031Z,982.00
2023-05-14T08:56:21.988Z,982.00
2023-05-14T08:57:22.005Z,981.98
2023-05-14T08:58:21.968Z,981.98
2023-05-14T08:59:21.999Z,981.97
2023-05-14T09:00:22.176Z,981.97
2023-05-14T09:01:21.965Z,981.96
2023-05-14T09:02:21.964Z,981.96
2023-05-14T09:03:21.969Z,981.93
2023-05-14T09:04:21.921Z,981.94
2023-05-14T09:05:21.911Z,981.94
2023-05-14T09:06:21.886Z,981.94
2023-05-14T09:07:21.904Z,981.92
2023-05-14T09:08:21.867Z,981.92
2023-05-14T09:09:21.870Z,981.92
2023-05-14T09:10:21.941Z,981.92
2023-05-14T09:11:21.858Z,981.92
2023-05-14T09:12:21.848Z,981.92
2023-05-14T09:13:21.821Z,981.91
2023-05-14T09:14:21.802Z,981.90
2023-05-14T09:15:21.816Z,981.90
2023-05-14T09:16:21.782Z,981.90
2023-05-14T09:17:21.799Z,981.89
2023-05-14T09:18:21.770Z,981.89
2023-05-14T09:19:21.898Z,981.89
2023-05-14T09:20:21.910Z,981.89
2023-05-14T09:21:21.737Z,981.89
2023-05-14T09:22:21.713Z,981.90
2023-05-14T09:23:21.709Z,981.88
2023-05-14T09:24:21.698Z,981.88
2023-05-14T09:25:21.678Z,981.88
2023-05-14T09:26:21.688Z,981.89
2023-05-14T09:27:21.684Z,981.90
2023-05-14T09:28:21.641Z,981.88
2023-05-14T09:29:21.684Z,981.89
2023-05-14T09:30:21.719Z,981.89
2023-05-14T09:31:21.654Z,981.87
2023-05-14T09:32:21.598Z,981.87
2023-05-14T09:33:21.631Z,981.85
2023-05-14T09:34:21.579Z,981.83
2023-05-14T09:35:21.609Z,981.82
2023-05-14T09:36:21.552Z,981.81
2023-05-14T09:37:21.573Z,981.79
2023-05-14T09:38:21.544Z,981.81
2023-05-14T09:39:21.555Z,981.80
2023-05-14T09:40:21.829Z,981.79
2023-05-14T09:41:21.519Z,981.79
2023-05-14T09:42:21.493Z,981.74
2023-05-14T09:43:21.494Z,981.73
2023-05-14T09:44:21.501Z,981.70
2023-05-14T09:45:21.478Z,981.66
2023-05-14T09:46:21.460Z,981.64
2023-05-14T09:47:21.490Z,981.62
2023-05-14T09:48:21.451Z,981.60
2023-05-14T09:49:21.448Z,981.57
2023-05-14T09:50:21.636Z,981.55
2023-05-14T09:51:21.450Z,981.52
2023-05-14T09:52:21.401Z,981.50
2023-05-14T09:53:21.392Z,981.50
2023-05-14T09:54:21.366Z,981.49
2023-05-14T09:55:21.451Z,981.51
2023-05-14T09:56:21.339Z,981.48
2023-05-14T09:57:21.360Z,981.47
2023-05-14T09:58:21.333Z,981.46
2023-05-14T09:59:21.363Z,981.46
2023-05-14T10:00:21.572Z,981.45
2023-05-14T10:01:21.315Z,981.44
2023-05-14T10:02:21.352Z,981.43
2023-05-14T10:03:21.282Z,981.42
2023-05-14T10:04:21.298Z,981.42
2023-05-14T10:05:21.267Z,981.40
2023-05-14T10:06:21.245Z,981.40
2023-05-14T10:07:21.239Z,981.37
2023-05-14T10:08:21.209Z,981.38
2023-05-14T10:09:21.241Z,981.38
2023-05-14T10:10:21.378Z,981.38
2023-05-14T10:11:21.214Z,981.38
2023-05-14T10:12:21.180Z,981.37
2023-05-14T10:13:21.208Z,981.39
2023-05-14T10:14:21.153Z,981.39
2023-05-14T10:15:21.175Z,981.40
2023-05-14T10:16:21.181Z,981.40
2023-05-14T10:17:21.181Z,981.40
2023-05-14T10:18:21.122Z,981.39
2023-05-14T10:19:21.350Z,981.38
2023-05-14T10:20:21.118Z,981.37
2023-05-14T10:21:21.105Z,981.37
2023-05-14T10:22:21.066Z,981.36
2023-05-14T10:23:21.079Z,981.36
2023-05-14T10:24:21.074Z,981.35
2023-05-14T10:25:21.045Z,981.34
2023-05-14T10:26:23.202Z,981.31
2023-05-14T10:27:21.044Z,981.31
2023-05-14T10:28:21.039Z,981.30
2023-05-14T10:29:21.022Z,981.30
2023-05-14T10:30:20.977Z,981.32
2023-05-14T10:31:21.078Z,981.30
2023-05-14T10:32:20.956Z,981.31
2023-05-14T10:33:21.006Z,981.31
2023-05-14T10:34:20.944Z,981.30
2023-05-14T10:35:21.006Z,981.31
2023-05-14T10:36:20.910Z,981.32
2023-05-14T10:37:20.936Z,981.30
2023-05-14T10:38:20.909Z,981.29
2023-05-14T10:39:20.901Z,981.29
2023-05-14T10:40:20.900Z,981.27
2023-05-14T10:41:20.883Z,981.26
2023-05-14T10:42:20.849Z,981.25
2023-05-14T10:43:20.878Z,981.25
2023-05-14T10:44:20.829Z,981.21
2023-05-14T10:45:20.849Z,981.19
2023-05-14T10:46:20.807Z,981.19
2023-05-14T10:47:20.853Z,981.17
2023-05-14T10:48:20.860Z,981.18
2023-05-14T10:49:32.340Z,981.17
2023-05-14T10:50:20.784Z,981.17
2023-05-14T10:51:20.911Z,981.16
2023-05-14T10:52:20.764Z,981.14
2023-05-14T10:53:20.761Z,981.12
2023-05-14T10:54:20.713Z,981.10
2023-05-14T10:55:20.748Z,981.10
2023-05-14T10:56:20.701Z,981.09
2023-05-14T10:57:20.700Z,981.06
2023-05-14T10:58:20.678Z,981.06
2023-05-14T10:59:20.694Z,981.06
2023-05-14T11:00:20.677Z,981.04
2023-05-14T11:01:20.684Z,981.01
2023-05-14T11:02:20.658Z,980.98
2023-05-14T11:03:20.713Z,980.93
2023-05-14T11:04:20.657Z,980.88
2023-05-14T11:05:20.636Z,980.84
2023-05-14T11:06:20.611Z,980.82
2023-05-14T11:07:20.600Z,980.77
2023-05-14T11:08:21.521Z,980.74
2023-05-14T11:09:20.596Z,980.73
2023-05-14T11:10:20.571Z,980.75
2023-05-14T11:11:20.594Z,980.73
2023-05-14T11:12:20.547Z,980.75
2023-05-14T11:13:20.549Z,980.72
2023-05-14T11:14:20.512Z,980.71
2023-05-14T11:15:20.534Z,980.73
2023-05-14T11:16:23.328Z,980.72
2023-05-14T11:17:20.529Z,980.71
2023-05-14T11:18:20.464Z,980.74
2023-05-14T11:19:20.497Z,980.72
2023-05-14T11:20:20.447Z,980.72
2023-05-14T11:21:20.522Z,980.75
2023-05-14T11:22:20.424Z,980.74
2023-05-14T11:23:20.432Z,980.73
2023-05-14T11:24:20.400Z,980.77
2023-05-14T11:25:20.422Z,980.78
2023-05-14T11:26:21.657Z,980.79
2023-05-14T11:27:20.398Z,980.79
2023-05-14T11:28:20.373Z,980.78
2023-05-14T11:29:20.366Z,980.80
2023-05-14T11:30:20.362Z,980.81
2023-05-14T11:31:20.385Z,980.80
2023-05-14T11:32:20.424Z,980.81
2023-05-14T11:33:20.409Z,980.79
2023-05-14T11:34:20.329Z,980.77
2023-05-14T11:35:20.320Z,980.75
2023-05-14T11:36:20.284Z,980.73
2023-05-14T11:37:20.305Z,980.72
2023-05-14T11:38:20.265Z,980.72
2023-05-14T11:39:20.272Z,980.71
2023-05-14T11:40:20.229Z,980.73
2023-05-14T11:41:20.240Z,980.74
2023-05-14T11:42:20.226Z,980.75
2023-05-14T11:43:20.237Z,980.76
2023-05-14T11:44:20.200Z,980.72
2023-05-14T11:45:20.210Z,980.73
2023-05-14T11:46:20.245Z,980.72
2023-05-14T11:47:20.191Z,980.71
2023-05-14T11:48:20.167Z,980.70
2023-05-14T11:49:20.176Z,980.68
2023-05-14T11:50:20.136Z,980.64
2023-05-14T11:51:20.132Z,980.63
2023-05-14T11:52:20.110Z,980.62
2023-05-14T11:53:20.129Z,980.62
2023-05-14T11:54:20.095Z,980.60
2023-05-14T11:55:20.105Z,980.60
2023-05-14T11:56:20.075Z,980.59
2023-05-14T11:57:20.084Z,980.57
2023-05-14T11:58:20.042Z,980.55
2023-05-14T11:59:20.060Z,980.55
2023-05-14T12:00:20.018Z,980.54
2023-05-14T12:01:20.033Z,980.55
2023-05-14T12:02:20.033Z,980.55
2023-05-14T12:03:20.206Z,980.55
2023-05-14T12:04:20.018Z,980.55
2023-05-14T12:05:20.016Z,980.54
2023-05-14T12:06:19.946Z,980.50
2023-05-14T12:07:19.972Z,980.48
2023-05-14T12:08:19.925Z,980.46
2023-05-14T12:09:19.985Z,980.45
2023-05-14T12:10:19.915Z,980.41
2023-05-14T12:11:19.925Z,980.41
2023-05-14T12:12:19.884Z,980.39
2023-05-14T12:13:19.908Z,980.40
2023-05-14T12:14:19.886Z,980.42
2023-05-14T12:15:19.894Z,980.43
2023-05-14T12:16:19.866Z,980.42
2023-05-14T12:17:19.864Z,980.41
2023-05-14T12:18:24.517Z,980.42
2023-05-14T12:19:19.872Z,980.43
2023-05-14T12:20:19.804Z,980.42
2023-05-14T12:21:19.836Z,980.43
2023-05-14T12:22:19.782Z,980.43
2023-05-14T12:23:19.808Z,980.43
2023-05-14T12:24:19.760Z,980.42
2023-05-14T12:25:19.779Z,980.41
2023-05-14T12:26:19.789Z,980.39
2023-05-14T12:27:19.748Z,980.39
2023-05-14T12:28:19.717Z,980.38